sensor_id;sensor_type;location;lat;lon;timestamp;P1;durP1;ratioP1;P2;durP2;ratioP2
30998;SDS011;20549;50.042;8.968;2023-05-10T00:00:53;1.20;;;0.60;;
30998;SDS011;20549;50.042;8.968;2023-05-10T00:03:19;0.20;;;0.20;;
30998;SDS011;20549;50.042;8.968;2023-05-10T00:05:46;0.80;;;0.55;;
30998;SDS011;20549;50.042;8.968;2023-05-10T00:08:12;0.95;;;0.42;;
30998;SDS011;20549;50.042;8.968;2023-05-10T00:10:39;0.40;;;0.40;;
30998;SDS011;20549;50.042;8.968;2023-05-10T00:13:06;1.80;;;0.47;;
30998;SDS011;20549;50.042;8.968;2023-05-10T00:15:32;0.37;;;0.37;;
30998;SDS011;20549;50.042;8.968;2023-05-10T00:17:59;0.45;;;0.45;;
30998;SDS011;20549;50.042;8.968;2023-05-10T00:20:25;0.70;;;0.70;;
30998;SDS011;20549;50.042;8.968;2023-05-10T00:22:52;0.20;;;0.20;;
30998;SDS011;20549;50.042;8.968;2023-05-10T00:25:19;0.20;;;0.20;;
30998;SDS011;20549;50.042;8.968;2023-05-10T00:27:45;0.93;;;0.30;;
30998;SDS011;20549;50.042;8.968;2023-05-10T00:30:12;0.40;;;0.30;;
30998;SDS011;20549;50.042;8.968;2023-05-10T00:32:38;0.20;;;0.20;;
30998;SDS011;20549;50.042;8.968;2023-05-10T00:35:05;0.47;;;0.30;;
30998;SDS011;20549;50.042;8.968;2023-05-10T00:37:31;1.57;;;0.45;;
30998;SDS011;20549;50.042;8.968;2023-05-10T00:39:58;0.98;;;0.23;;
30998;SDS011;20549;50.042;8.968;2023-05-10T00:42:25;0.20;;;0.20;;
30998;SDS011;20549;50.042;8.968;2023-05-10T00:44:51;1.80;;;0.30;;
30998;SDS011;20549;50.042;8.968;2023-05-10T00:47:18;0.20;;;0.20;;
30998;SDS011;20549;50.042;8.968;2023-05-10T00:49:44;0.28;;;0.28;;
30998;SDS011;20549;50.042;8.968;2023-05-10T00:52:11;1.27;;;0.17;;
30998;SDS011;20549;50.042;8.968;2023-05-10T00:54:38;0.30;;;0.30;;
30998;SDS011;20549;50.042;8.968;2023-05-10T00:57:04;0.20;;;0.20;;
30998;SDS011;20549;50.042;8.968;2023-05-10T00:59:31;0.37;;;0.20;;
30998;SDS011;20549;50.042;8.968;2023-05-10T01:01:57;0.30;;;0.30;;
30998;SDS011;20549;50.042;8.968;2023-05-10T01:04:24;1.22;;;0.20;;
30998;SDS011;20549;50.042;8.968;2023-05-10T01:06:53;0.25;;;0.25;;
30998;SDS011;20549;50.042;8.968;2023-05-10T01:09:21;0.50;;;0.50;;
30998;SDS011;20549;50.042;8.968;2023-05-10T01:11:47;0.30;;;0.30;;
30998;SDS011;20549;50.042;8.968;2023-05-10T01:14:13;0.20;;;0.20;;
30998;SDS011;20549;50.042;8.968;2023-05-10T01:16:40;0.40;;;0.40;;
30998;SDS011;20549;50.042;8.968;2023-05-10T01:19:22;0.30;;;0.30;;
30998;SDS011;20549;50.042;8.968;2023-05-10T01:21:37;0.50;;;0.50;;
30998;SDS011;20549;50.042;8.968;2023-05-10T01:29:53;0.33;;;0.30;;
30998;SDS011;20549;50.042;8.968;2023-05-10T01:32:21;0.28;;;0.28;;
30998;SDS011;20549;50.042;8.968;2023-05-10T01:35:03;0.65;;;0.62;;
30998;SDS011;20549;50.042;8.968;2023-05-10T01:37:33;0.53;;;0.40;;
30998;SDS011;20549;50.042;8.968;2023-05-10T01:40:32;0.20;;;0.20;;
30998;SDS011;20549;50.042;8.968;2023-05-10T01:42:43;0.30;;;0.30;;
30998;SDS011;20549;50.042;8.968;2023-05-10T01:45:10;0.47;;;0.47;;
30998;SDS011;20549;50.042;8.968;2023-05-10T01:47:35;0.75;;;0.40;;
30998;SDS011;20549;50.042;8.968;2023-05-10T01:50:04;0.40;;;0.40;;
30998;SDS011;20549;50.042;8.968;2023-05-10T01:52:33;0.40;;;0.40;;
30998;SDS011;20549;50.042;8.968;2023-05-10T01:55:02;0.37;;;0.37;;
30998;SDS011;20549;50.042;8.968;2023-05-10T01:57:31;0.37;;;0.30;;
30998;SDS011;20549;50.042;8.968;2023-05-10T01:59:55;0.23;;;0.23;;
30998;SDS011;20549;50.042;8.968;2023-05-10T02:02:22;0.47;;;0.30;;
30998;SDS011;20549;50.042;8.968;2023-05-10T02:04:49;0.20;;;0.20;;
30998;SDS011;20549;50.042;8.968;2023-05-10T02:07:15;0.30;;;0.30;;
30998;SDS011;20549;50.042;8.968;2023-05-10T02:09:43;1.27;;;0.37;;
30998;SDS011;20549;50.042;8.968;2023-05-10T02:12:08;0.40;;;0.40;;
30998;SDS011;20549;50.042;8.968;2023-05-10T02:14:36;0.68;;;0.50;;
30998;SDS011;20549;50.042;8.968;2023-05-10T02:17:02;0.55;;;0.30;;
30998;SDS011;20549;50.042;8.968;2023-05-10T02:19:28;0.23;;;0.23;;
30998;SDS011;20549;50.042;8.968;2023-05-10T02:21:55;0.57;;;0.30;;
30998;SDS011;20549;50.042;8.968;2023-05-10T02:24:21;0.40;;;0.40;;
30998;SDS011;20549;50.042;8.968;2023-05-10T02:26:48;0.30;;;0.30;;
30998;SDS011;20549;50.042;8.968;2023-05-10T02:29:14;0.30;;;0.30;;
30998;SDS011;20549;50.042;8.968;2023-05-10T02:31:41;0.35;;;0.35;;
30998;SDS011;20549;50.042;8.968;2023-05-10T02:34:08;0.50;;;0.50;;
30998;SDS011;20549;50.042;8.968;2023-05-10T02:36:34;0.42;;;0.37;;
30998;SDS011;20549;50.042;8.968;2023-05-10T02:39:01;0.40;;;0.40;;
30998;SDS011;20549;50.042;8.968;2023-05-10T02:41:27;0.37;;;0.37;;
30998;SDS011;20549;50.042;8.968;2023-05-10T02:43:55;0.40;;;0.35;;
30998;SDS011;20549;50.042;8.968;2023-05-10T02:46:21;1.10;;;0.45;;
30998;SDS011;20549;50.042;8.968;2023-05-10T02:48:47;1.50;;;0.30;;
30998;SDS011;20549;50.042;8.968;2023-05-10T02:51:14;0.95;;;0.50;;
30998;SDS011;20549;50.042;8.968;2023-05-10T02:53:40;2.75;;;0.50;;
30998;SDS011;20549;50.042;8.968;2023-05-10T02:56:27;0.70;;;0.70;;
30998;SDS011;20549;50.042;8.968;2023-05-10T02:58:52;0.53;;;0.50;;
30998;SDS011;20549;50.042;8.968;2023-05-10T03:01:18;0.42;;;0.40;;
30998;SDS011;20549;50.042;8.968;2023-05-10T03:03:45;0.37;;;0.37;;
30998;SDS011;20549;50.042;8.968;2023-05-10T03:06:11;0.65;;;0.37;;
30998;SDS011;20549;50.042;8.968;2023-05-10T03:08:38;0.50;;;0.50;;
30998;SDS011;20549;50.042;8.968;2023-05-10T03:13:44;0.57;;;0.57;;
30998;SDS011;20549;50.042;8.968;2023-05-10T03:16:14;1.15;;;0.50;;
30998;SDS011;20549;50.042;8.968;2023-05-10T03:18:47;0.60;;;0.60;;
30998;SDS011;20549;50.042;8.968;2023-05-10T03:21:11;0.45;;;0.45;;
30998;SDS011;20549;50.042;8.968;2023-05-10T03:23:41;0.55;;;0.55;;
30998;SDS011;20549;50.042;8.968;2023-05-10T03:26:07;0.60;;;0.60;;
30998;SDS011;20549;50.042;8.968;2023-05-10T03:28:33;1.27;;;0.60;;
30998;SDS011;20549;50.042;8.968;2023-05-10T03:31:00;2.30;;;0.60;;
30998;SDS011;20549;50.042;8.968;2023-05-10T03:33:26;0.72;;;0.60;;
30998;SDS011;20549;50.042;8.968;2023-05-10T03:35:53;0.60;;;0.60;;
30998;SDS011;20549;50.042;8.968;2023-05-10T03:38:19;0.60;;;0.60;;
30998;SDS011;20549;50.042;8.968;2023-05-10T03:40:46;1.47;;;0.90;;
30998;SDS011;20549;50.042;8.968;2023-05-10T03:43:12;0.70;;;0.70;;
30998;SDS011;20549;50.042;8.968;2023-05-10T03:45:39;1.15;;;0.70;;
30998;SDS011;20549;50.042;8.968;2023-05-10T03:48:06;0.90;;;0.68;;
30998;SDS011;20549;50.042;8.968;2023-05-10T03:50:32;0.85;;;0.60;;
30998;SDS011;20549;50.042;8.968;2023-05-10T03:52:59;0.60;;;0.60;;
30998;SDS011;20549;50.042;8.968;2023-05-10T03:55:25;0.88;;;0.70;;
30998;SDS011;20549;50.042;8.968;2023-05-10T03:57:52;1.52;;;0.78;;
30998;SDS011;20549;50.042;8.968;2023-05-10T04:00:19;2.55;;;0.60;;
30998;SDS011;20549;50.042;8.968;2023-05-10T04:02:45;0.88;;;0.68;;
30998;SDS011;20549;50.042;8.968;2023-05-10T04:05:12;0.72;;;0.72;;
30998;SDS011;20549;50.042;8.968;2023-05-10T04:07:38;1.00;;;0.80;;
30998;SDS011;20549;50.042;8.968;2023-05-10T04:10:05;1.10;;;0.75;;
30998;SDS011;20549;50.042;8.968;2023-05-10T04:12:32;1.07;;;0.95;;
30998;SDS011;20549;50.042;8.968;2023-05-10T04:14:58;2.75;;;1.02;;
30998;SDS011;20549;50.042;8.968;2023-05-10T04:17:25;1.02;;;0.78;;
30998;SDS011;20549;50.042;8.968;2023-05-10T04:19:51;0.80;;;0.70;;
30998;SDS011;20549;50.042;8.968;2023-05-10T04:22:18;1.75;;;1.00;;
30998;SDS011;20549;50.042;8.968;2023-05-10T04:24:44;1.02;;;1.02;;
30998;SDS011;20549;50.042;8.968;2023-05-10T04:27:11;0.70;;;0.70;;
30998;SDS011;20549;50.042;8.968;2023-05-10T04:29:38;1.80;;;0.90;;
30998;SDS011;20549;50.042;8.968;2023-05-10T04:32:04;1.32;;;1.20;;
30998;SDS011;20549;50.042;8.968;2023-05-10T04:34:31;0.80;;;0.80;;
30998;SDS011;20549;50.042;8.968;2023-05-10T04:36:57;1.30;;;0.80;;
30998;SDS011;20549;50.042;8.968;2023-05-10T04:39:24;1.55;;;1.10;;
30998;SDS011;20549;50.042;8.968;2023-05-10T04:41:51;0.98;;;0.90;;
30998;SDS011;20549;50.042;8.968;2023-05-10T04:44:17;1.98;;;1.30;;
30998;SDS011;20549;50.042;8.968;2023-05-10T04:46:44;0.93;;;0.93;;
30998;SDS011;20549;50.042;8.968;2023-05-10T04:49:10;1.45;;;1.30;;
30998;SDS011;20549;50.042;8.968;2023-05-10T04:51:37;1.00;;;0.70;;
30998;SDS011;20549;50.042;8.968;2023-05-10T04:54:04;0.90;;;0.90;;
30998;SDS011;20549;50.042;8.968;2023-05-10T04:56:30;1.00;;;1.00;;
30998;SDS011;20549;50.042;8.968;2023-05-10T04:58:57;0.90;;;0.90;;
30998;SDS011;20549;50.042;8.968;2023-05-10T05:01:23;0.85;;;0.85;;
30998;SDS011;20549;50.042;8.968;2023-05-10T05:03:50;1.60;;;1.10;;
30998;SDS011;20549;50.042;8.968;2023-05-10T05:06:16;1.27;;;0.98;;
30998;SDS011;20549;50.042;8.968;2023-05-10T05:08:43;1.22;;;0.90;;
30998;SDS011;20549;50.042;8.968;2023-05-10T05:11:10;1.07;;;1.00;;
30998;SDS011;20549;50.042;8.968;2023-05-10T05:13:36;1.10;;;1.10;;
30998;SDS011;20549;50.042;8.968;2023-05-10T05:16:03;1.15;;;1.15;;
30998;SDS011;20549;50.042;8.968;2023-05-10T05:18:29;0.82;;;0.82;;
30998;SDS011;20549;50.042;8.968;2023-05-10T05:20:56;0.98;;;0.98;;
30998;SDS011;20549;50.042;8.968;2023-05-10T05:23:23;1.00;;;1.00;;
30998;SDS011;20549;50.042;8.968;2023-05-10T05:25:49;1.72;;;0.85;;
30998;SDS011;20549;50.042;8.968;2023-05-10T05:28:16;1.02;;;1.02;;
30998;SDS011;20549;50.042;8.968;2023-05-10T05:30:42;2.22;;;1.20;;
30998;SDS011;20549;50.042;8.968;2023-05-10T05:33:09;1.60;;;1.17;;
30998;SDS011;20549;50.042;8.968;2023-05-10T05:35:36;1.10;;;1.00;;
30998;SDS011;20549;50.042;8.968;2023-05-10T05:38:02;1.35;;;1.25;;
30998;SDS011;20549;50.042;8.968;2023-05-10T05:40:29;1.17;;;1.17;;
30998;SDS011;20549;50.042;8.968;2023-05-10T05:42:55;1.52;;;1.07;;
30998;SDS011;20549;50.042;8.968;2023-05-10T05:45:22;1.17;;;1.17;;
30998;SDS011;20549;50.042;8.968;2023-05-10T05:47:49;1.00;;;1.00;;
30998;SDS011;20549;50.042;8.968;2023-05-10T05:50:15;1.85;;;1.20;;
30998;SDS011;20549;50.042;8.968;2023-05-10T05:52:42;1.65;;;1.30;;
30998;SDS011;20549;50.042;8.968;2023-05-10T05:55:08;1.50;;;1.00;;
30998;SDS011;20549;50.042;8.968;2023-05-10T05:57:35;1.00;;;1.00;;
30998;SDS011;20549;50.042;8.968;2023-05-10T06:00:01;1.30;;;1.20;;
30998;SDS011;20549;50.042;8.968;2023-05-10T06:02:28;4.37;;;3.33;;
30998;SDS011;20549;50.042;8.968;2023-05-10T06:04:55;2.62;;;2.33;;
30998;SDS011;20549;50.042;8.968;2023-05-10T06:07:21;5.05;;;4.53;;
30998;SDS011;20549;50.042;8.968;2023-05-10T06:09:48;3.90;;;2.65;;
30998;SDS011;20549;50.042;8.968;2023-05-10T06:12:14;3.27;;;2.75;;
30998;SDS011;20549;50.042;8.968;2023-05-10T06:14:41;3.47;;;2.30;;
30998;SDS011;20549;50.042;8.968;2023-05-10T06:17:08;1.87;;;1.77;;
30998;SDS011;20549;50.042;8.968;2023-05-10T06:19:34;1.60;;;1.50;;
30998;SDS011;20549;50.042;8.968;2023-05-10T06:22:01;1.40;;;1.40;;
30998;SDS011;20549;50.042;8.968;2023-05-10T06:24:27;1.85;;;1.45;;
30998;SDS011;20549;50.042;8.968;2023-05-10T06:26:54;1.75;;;1.65;;
30998;SDS011;20549;50.042;8.968;2023-05-10T06:29:21;2.00;;;1.45;;
30998;SDS011;20549;50.042;8.968;2023-05-10T06:31:47;1.45;;;1.25;;
30998;SDS011;20549;50.042;8.968;2023-05-10T06:34:14;1.60;;;1.50;;
30998;SDS011;20549;50.042;8.968;2023-05-10T06:36:40;1.72;;;1.62;;
30998;SDS011;20549;50.042;8.968;2023-05-10T06:39:07;2.15;;;2.05;;
30998;SDS011;20549;50.042;8.968;2023-05-10T06:41:33;1.55;;;1.45;;
30998;SDS011;20549;50.042;8.968;2023-05-10T06:44:00;1.32;;;1.30;;
30998;SDS011;20549;50.042;8.968;2023-05-10T06:46:27;1.50;;;1.40;;
30998;SDS011;20549;50.042;8.968;2023-05-10T06:48:53;1.77;;;1.20;;
30998;SDS011;20549;50.042;8.968;2023-05-10T06:51:20;1.65;;;1.55;;
30998;SDS011;20549;50.042;8.968;2023-05-10T06:53:46;1.70;;;1.40;;
30998;SDS011;20549;50.042;8.968;2023-05-10T06:56:13;1.92;;;1.35;;
30998;SDS011;20549;50.042;8.968;2023-05-10T06:58:40;2.72;;;1.52;;
30998;SDS011;20549;50.042;8.968;2023-05-10T07:01:06;1.50;;;1.22;;
30998;SDS011;20549;50.042;8.968;2023-05-10T07:03:33;1.30;;;1.20;;
30998;SDS011;20549;50.042;8.968;2023-05-10T07:06:00;1.50;;;1.40;;
30998;SDS011;20549;50.042;8.968;2023-05-10T07:08:32;2.37;;;2.20;;
30998;SDS011;20549;50.042;8.968;2023-05-10T07:11:02;1.70;;;1.55;;
30998;SDS011;20549;50.042;8.968;2023-05-10T07:13:28;1.82;;;1.20;;
30998;SDS011;20549;50.042;8.968;2023-05-10T07:15:54;2.87;;;1.40;;
30998;SDS011;20549;50.042;8.968;2023-05-10T07:18:21;1.37;;;1.27;;
30998;SDS011;20549;50.042;8.968;2023-05-10T07:20:47;1.87;;;1.35;;
30998;SDS011;20549;50.042;8.968;2023-05-10T07:23:14;1.30;;;1.20;;
30998;SDS011;20549;50.042;8.968;2023-05-10T07:25:40;1.90;;;1.32;;
30998;SDS011;20549;50.042;8.968;2023-05-10T07:28:07;3.70;;;1.40;;
30998;SDS011;20549;50.042;8.968;2023-05-10T07:30:34;1.40;;;1.30;;
30998;SDS011;20549;50.042;8.968;2023-05-10T07:33:00;1.40;;;1.30;;
30998;SDS011;20549;50.042;8.968;2023-05-10T07:35:27;1.55;;;1.42;;
30998;SDS011;20549;50.042;8.968;2023-05-10T07:37:53;1.90;;;1.20;;
30998;SDS011;20549;50.042;8.968;2023-05-10T07:40:20;1.87;;;1.75;;
30998;SDS011;20549;50.042;8.968;2023-05-10T07:42:47;1.67;;;1.57;;
30998;SDS011;20549;50.042;8.968;2023-05-10T07:45:13;2.37;;;1.60;;
30998;SDS011;20549;50.042;8.968;2023-05-10T07:47:40;1.67;;;1.57;;
30998;SDS011;20549;50.042;8.968;2023-05-10T07:50:07;1.82;;;1.62;;
30998;SDS011;20549;50.042;8.968;2023-05-10T07:52:33;1.72;;;1.50;;
30998;SDS011;20549;50.042;8.968;2023-05-10T07:55:00;1.62;;;1.42;;
30998;SDS011;20549;50.042;8.968;2023-05-10T07:57:26;2.22;;;1.55;;
30998;SDS011;20549;50.042;8.968;2023-05-10T07:59:53;1.80;;;1.60;;
30998;SDS011;20549;50.042;8.968;2023-05-10T08:02:20;3.70;;;1.52;;
30998;SDS011;20549;50.042;8.968;2023-05-10T08:04:46;1.98;;;1.30;;
30998;SDS011;20549;50.042;8.968;2023-05-10T08:07:13;1.45;;;1.35;;
30998;SDS011;20549;50.042;8.968;2023-05-10T08:09:39;1.50;;;1.40;;
30998;SDS011;20549;50.042;8.968;2023-05-10T08:12:06;1.80;;;1.70;;
30998;SDS011;20549;50.042;8.968;2023-05-10T08:14:33;1.70;;;1.20;;
30998;SDS011;20549;50.042;8.968;2023-05-10T08:16:59;1.40;;;1.30;;
30998;SDS011;20549;50.042;8.968;2023-05-10T08:19:26;1.50;;;1.40;;
30998;SDS011;20549;50.042;8.968;2023-05-10T08:21:52;3.15;;;1.45;;
30998;SDS011;20549;50.042;8.968;2023-05-10T08:24:19;1.67;;;1.12;;
30998;SDS011;20549;50.042;8.968;2023-05-10T08:26:45;2.40;;;2.10;;
30998;SDS011;20549;50.042;8.968;2023-05-10T08:29:12;1.55;;;1.32;;
30998;SDS011;20549;50.042;8.968;2023-05-10T08:31:39;4.20;;;1.80;;
30998;SDS011;20549;50.042;8.968;2023-05-10T08:34:05;1.55;;;1.45;;
30998;SDS011;20549;50.042;8.968;2023-05-10T08:36:32;1.57;;;1.47;;
30998;SDS011;20549;50.042;8.968;2023-05-10T08:38:58;1.40;;;1.22;;
30998;SDS011;20549;50.042;8.968;2023-05-10T08:41:25;1.20;;;1.10;;
30998;SDS011;20549;50.042;8.968;2023-05-10T08:43:55;1.50;;;1.40;;
30998;SDS011;20549;50.042;8.968;2023-05-10T08:46:22;1.57;;;1.47;;
30998;SDS011;20549;50.042;8.968;2023-05-10T08:48:49;1.65;;;1.22;;
30998;SDS011;20549;50.042;8.968;2023-05-10T08:51:17;1.37;;;1.27;;
30998;SDS011;20549;50.042;8.968;2023-05-10T08:53:44;1.52;;;1.42;;
30998;SDS011;20549;50.042;8.968;2023-05-10T08:56:10;2.27;;;1.40;;
30998;SDS011;20549;50.042;8.968;2023-05-10T08:58:37;1.35;;;1.10;;
30998;SDS011;20549;50.042;8.968;2023-05-10T09:01:04;1.20;;;1.10;;
30998;SDS011;20549;50.042;8.968;2023-05-10T09:03:30;1.20;;;1.10;;
30998;SDS011;20549;50.042;8.968;2023-05-10T09:05:56;1.70;;;1.27;;
30998;SDS011;20549;50.042;8.968;2023-05-10T09:08:24;1.35;;;1.25;;
30998;SDS011;20549;50.042;8.968;2023-05-10T09:10:53;1.10;;;1.10;;
30998;SDS011;20549;50.042;8.968;2023-05-10T09:13:19;1.27;;;1.15;;
30998;SDS011;20549;50.042;8.968;2023-05-10T09:15:46;1.25;;;1.22;;
30998;SDS011;20549;50.042;8.968;2023-05-10T09:18:12;1.55;;;1.40;;
30998;SDS011;20549;50.042;8.968;2023-05-10T09:20:39;1.32;;;1.02;;
30998;SDS011;20549;50.042;8.968;2023-05-10T09:23:05;1.30;;;1.20;;
30998;SDS011;20549;50.042;8.968;2023-05-10T09:25:32;1.75;;;1.22;;
30998;SDS011;20549;50.042;8.968;2023-05-10T09:28:01;1.40;;;1.10;;
30998;SDS011;20549;50.042;8.968;2023-05-10T09:30:28;1.37;;;1.20;;
30998;SDS011;20549;50.042;8.968;2023-05-10T09:32:55;1.92;;;1.27;;
30998;SDS011;20549;50.042;8.968;2023-05-10T09:35:21;1.12;;;1.02;;
30998;SDS011;20549;50.042;8.968;2023-05-10T09:37:48;3.30;;;1.00;;
30998;SDS011;20549;50.042;8.968;2023-05-10T09:40:18;1.22;;;1.22;;
30998;SDS011;20549;50.042;8.968;2023-05-10T09:45:29;1.57;;;1.05;;
30998;SDS011;20549;50.042;8.968;2023-05-10T09:47:55;2.50;;;0.95;;
30998;SDS011;20549;50.042;8.968;2023-05-10T09:50:22;1.17;;;1.00;;
30998;SDS011;20549;50.042;8.968;2023-05-10T09:52:57;0.80;;;0.80;;
30998;SDS011;20549;50.042;8.968;2023-05-10T09:55:48;0.70;;;0.70;;
30998;SDS011;20549;50.042;8.968;2023-05-10T09:58:02;0.75;;;0.68;;
30998;SDS011;20549;50.042;8.968;2023-05-10T10:00:33;0.70;;;0.70;;
30998;SDS011;20549;50.042;8.968;2023-05-10T10:02:56;1.05;;;0.85;;
30998;SDS011;20549;50.042;8.968;2023-05-10T10:05:27;0.70;;;0.70;;
30998;SDS011;20549;50.042;8.968;2023-05-10T10:07:55;0.93;;;0.80;;
30998;SDS011;20549;50.042;8.968;2023-05-10T10:10:21;0.93;;;0.90;;
30998;SDS011;20549;50.042;8.968;2023-05-10T10:12:47;1.95;;;1.17;;
30998;SDS011;20549;50.042;8.968;2023-05-10T10:15:14;0.90;;;0.85;;
30998;SDS011;20549;50.042;8.968;2023-05-10T10:17:40;0.70;;;0.70;;
30998;SDS011;20549;50.042;8.968;2023-05-10T10:20:07;1.82;;;1.05;;
30998;SDS011;20549;50.042;8.968;2023-05-10T10:22:33;0.95;;;0.95;;
30998;SDS011;20549;50.042;8.968;2023-05-10T10:25:00;1.00;;;1.00;;
30998;SDS011;20549;50.042;8.968;2023-05-10T10:27:32;0.98;;;0.65;;
30998;SDS011;20549;50.042;8.968;2023-05-10T10:30:51;0.93;;;0.93;;
30998;SDS011;20549;50.042;8.968;2023-05-10T10:35:23;1.42;;;1.22;;
30998;SDS011;20549;50.042;8.968;2023-05-10T10:37:50;0.80;;;0.80;;
30998;SDS011;20549;50.042;8.968;2023-05-10T10:40:25;1.90;;;0.93;;
30998;SDS011;20549;50.042;8.968;2023-05-10T10:42:48;0.85;;;0.85;;
30998;SDS011;20549;50.042;8.968;2023-05-10T10:45:18;0.98;;;0.82;;
30998;SDS011;20549;50.042;8.968;2023-05-10T10:47:44;0.70;;;0.70;;
30998;SDS011;20549;50.042;8.968;2023-05-10T10:50:11;2.05;;;0.90;;
30998;SDS011;20549;50.042;8.968;2023-05-10T10:52:40;0.90;;;0.90;;
30998;SDS011;20549;50.042;8.968;2023-05-10T10:57:49;1.95;;;0.60;;
30998;SDS011;20549;50.042;8.968;2023-05-10T11:00:34;0.78;;;0.50;;
30998;SDS011;20549;50.042;8.968;2023-05-10T11:03:03;0.40;;;0.40;;
30998;SDS011;20549;50.042;8.968;2023-05-10T11:07:56;0.35;;;0.30;;
30998;SDS011;20549;50.042;8.968;2023-05-10T11:10:22;1.77;;;0.50;;
30998;SDS011;20549;50.042;8.968;2023-05-10T11:12:52;1.07;;;0.37;;
30998;SDS011;20549;50.042;8.968;2023-05-10T11:15:17;0.40;;;0.40;;
30998;SDS011;20549;50.042;8.968;2023-05-10T11:17:44;0.62;;;0.62;;
30998;SDS011;20549;50.042;8.968;2023-05-10T11:20:11;0.53;;;0.45;;
30998;SDS011;20549;50.042;8.968;2023-05-10T11:22:53;0.98;;;0.75;;
30998;SDS011;20549;50.042;8.968;2023-05-10T11:25:19;0.78;;;0.75;;
30998;SDS011;20549;50.042;8.968;2023-05-10T11:27:49;0.72;;;0.72;;
30998;SDS011;20549;50.042;8.968;2023-05-10T11:30:15;1.57;;;0.70;;
30998;SDS011;20549;50.042;8.968;2023-05-10T11:32:42;1.52;;;0.95;;
30998;SDS011;20549;50.042;8.968;2023-05-10T11:35:09;0.60;;;0.60;;
30998;SDS011;20549;50.042;8.968;2023-05-10T11:37:35;0.82;;;0.78;;
30998;SDS011;20549;50.042;8.968;2023-05-10T11:40:02;0.68;;;0.65;;
30998;SDS011;20549;50.042;8.968;2023-05-10T11:42:28;1.00;;;0.80;;
30998;SDS011;20549;50.042;8.968;2023-05-10T11:44:55;0.60;;;0.60;;
30998;SDS011;20549;50.042;8.968;2023-05-10T11:47:21;0.80;;;0.80;;
30998;SDS011;20549;50.042;8.968;2023-05-10T11:49:48;1.30;;;0.68;;
30998;SDS011;20549;50.042;8.968;2023-05-10T11:52:15;0.50;;;0.50;;
30998;SDS011;20549;50.042;8.968;2023-05-10T11:54:51;0.62;;;0.62;;
30998;SDS011;20549;50.042;8.968;2023-05-10T11:57:18;1.22;;;0.40;;
30998;SDS011;20549;50.042;8.968;2023-05-10T11:59:46;0.53;;;0.40;;
30998;SDS011;20549;50.042;8.968;2023-05-10T12:02:13;1.25;;;0.60;;
30998;SDS011;20549;50.042;8.968;2023-05-10T12:04:39;1.67;;;0.80;;
30998;SDS011;20549;50.042;8.968;2023-05-10T12:07:06;0.78;;;0.75;;
30998;SDS011;20549;50.042;8.968;2023-05-10T12:09:32;1.37;;;0.53;;
30998;SDS011;20549;50.042;8.968;2023-05-10T12:11:59;0.40;;;0.40;;
30998;SDS011;20549;50.042;8.968;2023-05-10T12:14:26;0.85;;;0.85;;
30998;SDS011;20549;50.042;8.968;2023-05-10T12:16:52;1.95;;;0.70;;
30998;SDS011;20549;50.042;8.968;2023-05-10T12:19:19;1.50;;;0.70;;
30998;SDS011;20549;50.042;8.968;2023-05-10T12:21:45;0.70;;;0.70;;
30998;SDS011;20549;50.042;8.968;2023-05-10T12:24:12;0.80;;;0.80;;
30998;SDS011;20549;50.042;8.968;2023-05-10T12:26:38;0.75;;;0.62;;
30998;SDS011;20549;50.042;8.968;2023-05-10T12:29:15;0.95;;;0.60;;
30998;SDS011;20549;50.042;8.968;2023-05-10T12:31:57;0.62;;;0.62;;
30998;SDS011;20549;50.042;8.968;2023-05-10T12:34:26;1.75;;;0.80;;
30998;SDS011;20549;50.042;8.968;2023-05-10T12:36:53;0.95;;;0.78;;
30998;SDS011;20549;50.042;8.968;2023-05-10T12:39:19;1.07;;;0.88;;
30998;SDS011;20549;50.042;8.968;2023-05-10T12:41:45;0.88;;;0.50;;
30998;SDS011;20549;50.042;8.968;2023-05-10T12:44:12;0.42;;;0.40;;
30998;SDS011;20549;50.042;8.968;2023-05-10T12:46:38;0.62;;;0.62;;
30998;SDS011;20549;50.042;8.968;2023-05-10T12:49:05;0.50;;;0.40;;
30998;SDS011;20549;50.042;8.968;2023-05-10T12:51:32;1.05;;;0.50;;
30998;SDS011;20549;50.042;8.968;2023-05-10T12:53:58;0.40;;;0.40;;
30998;SDS011;20549;50.042;8.968;2023-05-10T12:56:25;2.62;;;0.40;;
30998;SDS011;20549;50.042;8.968;2023-05-10T12:58:51;0.23;;;0.23;;
30998;SDS011;20549;50.042;8.968;2023-05-10T13:01:18;0.75;;;0.30;;
30998;SDS011;20549;50.042;8.968;2023-05-10T13:03:44;0.50;;;0.50;;
30998;SDS011;20549;50.042;8.968;2023-05-10T13:06:11;0.78;;;0.60;;
30998;SDS011;20549;50.042;8.968;2023-05-10T13:08:38;0.88;;;0.47;;
30998;SDS011;20549;50.042;8.968;2023-05-10T13:11:05;0.53;;;0.53;;
30998;SDS011;20549;50.042;8.968;2023-05-10T13:13:31;0.88;;;0.53;;
30998;SDS011;20549;50.042;8.968;2023-05-10T13:15:57;1.45;;;0.75;;
30998;SDS011;20549;50.042;8.968;2023-05-10T13:18:24;0.57;;;0.37;;
30998;SDS011;20549;50.042;8.968;2023-05-10T13:20:51;0.50;;;0.50;;
30998;SDS011;20549;50.042;8.968;2023-05-10T13:23:17;0.62;;;0.62;;
30998;SDS011;20549;50.042;8.968;2023-05-10T13:25:44;0.28;;;0.28;;
30998;SDS011;20549;50.042;8.968;2023-05-10T13:28:10;0.45;;;0.42;;
30998;SDS011;20549;50.042;8.968;2023-05-10T13:30:37;1.27;;;0.40;;
30998;SDS011;20549;50.042;8.968;2023-05-10T13:33:04;3.90;;;0.57;;
30998;SDS011;20549;50.042;8.968;2023-05-10T13:35:30;0.28;;;0.28;;
30998;SDS011;20549;50.042;8.968;2023-05-10T13:37:57;0.35;;;0.30;;
30998;SDS011;20549;50.042;8.968;2023-05-10T13:40:23;0.78;;;0.30;;
30998;SDS011;20549;50.042;8.968;2023-05-10T13:42:50;0.30;;;0.30;;
30998;SDS011;20549;50.042;8.968;2023-05-10T13:45:16;0.33;;;0.33;;
30998;SDS011;20549;50.042;8.968;2023-05-10T13:47:43;0.57;;;0.40;;
30998;SDS011;20549;50.042;8.968;2023-05-10T13:50:10;0.45;;;0.40;;
30998;SDS011;20549;50.042;8.968;2023-05-10T13:52:36;0.40;;;0.40;;
30998;SDS011;20549;50.042;8.968;2023-05-10T13:55:03;0.47;;;0.47;;
30998;SDS011;20549;50.042;8.968;2023-05-10T13:57:29;0.30;;;0.30;;
30998;SDS011;20549;50.042;8.968;2023-05-10T13:59:56;0.25;;;0.25;;
30998;SDS011;20549;50.042;8.968;2023-05-10T14:02:23;0.40;;;0.35;;
30998;SDS011;20549;50.042;8.968;2023-05-10T14:04:49;0.25;;;0.25;;
30998;SDS011;20549;50.042;8.968;2023-05-10T14:07:16;0.57;;;0.47;;
30998;SDS011;20549;50.042;8.968;2023-05-10T14:09:42;0.93;;;0.40;;
30998;SDS011;20549;50.042;8.968;2023-05-10T14:12:09;1.72;;;1.02;;
30998;SDS011;20549;50.042;8.968;2023-05-10T14:14:36;1.12;;;0.50;;
30998;SDS011;20549;50.042;8.968;2023-05-10T14:17:02;0.30;;;0.30;;
30998;SDS011;20549;50.042;8.968;2023-05-10T14:19:29;0.70;;;0.53;;
30998;SDS011;20549;50.042;8.968;2023-05-10T14:21:55;0.47;;;0.45;;
30998;SDS011;20549;50.042;8.968;2023-05-10T14:24:22;0.88;;;0.40;;
30998;SDS011;20549;50.042;8.968;2023-05-10T14:26:49;1.70;;;0.90;;
30998;SDS011;20549;50.042;8.968;2023-05-10T14:29:15;0.50;;;0.50;;
30998;SDS011;20549;50.042;8.968;2023-05-10T14:31:42;0.57;;;0.53;;
30998;SDS011;20549;50.042;8.968;2023-05-10T14:34:08;0.60;;;0.50;;
30998;SDS011;20549;50.042;8.968;2023-05-10T14:36:35;0.40;;;0.40;;
30998;SDS011;20549;50.042;8.968;2023-05-10T14:39:01;0.40;;;0.40;;
30998;SDS011;20549;50.042;8.968;2023-05-10T14:41:28;0.45;;;0.45;;
30998;SDS011;20549;50.042;8.968;2023-05-10T14:43:55;1.55;;;0.60;;
30998;SDS011;20549;50.042;8.968;2023-05-10T14:46:21;0.62;;;0.50;;
30998;SDS011;20549;50.042;8.968;2023-05-10T14:48:48;0.60;;;0.47;;
30998;SDS011;20549;50.042;8.968;2023-05-10T14:51:14;0.53;;;0.50;;
30998;SDS011;20549;50.042;8.968;2023-05-10T14:53:41;0.70;;;0.65;;
30998;SDS011;20549;50.042;8.968;2023-05-10T14:56:08;0.57;;;0.57;;
30998;SDS011;20549;50.042;8.968;2023-05-10T14:58:34;1.17;;;0.80;;
30998;SDS011;20549;50.042;8.968;2023-05-10T15:01:01;0.85;;;0.47;;
30998;SDS011;20549;50.042;8.968;2023-05-10T15:03:27;0.40;;;0.40;;
30998;SDS011;20549;50.042;8.968;2023-05-10T15:05:54;1.25;;;0.50;;